Terminal Aerodrome Forecast
Issued by NWS Upton, NY

Home | Current Version | Previous Version | Text Only | Print | Product List | Glossary On
Versions: 1 2 3 4 5 6 7 8 9 10 11 12 13 14 15 16 17 18 19 20 21 22 23 24 25 26 27 28 29 30 31 32 33 34 35
000
FTUS41 KOKX 232029 AAB
TAFBDR
TAF AMD
KBDR 232029Z 2320/2418 09010KT 5SM -RA BR VCSH OVC009
      TEMPO 2320/2323 2SM -RA BR BKN007 OVC009
     FM232300 12007KT 3SM -RA BR OVC007
     FM240300 24005KT 2SM -RA BR OVC005 WS020/27035KT
     FM240800 26005KT 6SM BR OVC010
     FM241100 30005KT P6SM OVC012
     FM241500 32006KT P6SM FEW020 OVC090=

USA.gov is the U.S. government's official web portal to all federal, state and local government web resources and services.